sensor_id;sensor_type;location;lat;lon;timestamp;pressure;altitude;pressure_sealevel;temperature;humidity
69624;BME280;56843;52.020;5.670;2023-05-14T00:01:25;101820.50;;;18.19;49.94
69624;BME280;56843;52.020;5.670;2023-05-14T00:02:55;101826.59;;;18.16;49.67
69624;BME280;56843;52.020;5.670;2023-05-14T00:04:26;101832.34;;;18.15;50.06
69624;BME280;56843;52.020;5.670;2023-05-14T00:05:56;101809.78;;;18.07;50.00
69624;BME280;56843;52.020;5.670;2023-05-14T00:07:27;101813.25;;;18.08;49.75
69624;BME280;56843;52.020;5.670;2023-05-14T00:08:59;101818.66;;;18.08;49.79
69624;BME280;56843;52.020;5.670;2023-05-14T00:10:30;101820.16;;;18.05;50.05
69624;BME280;56843;52.020;5.670;2023-05-14T00:12:01;101822.41;;;18.03;50.06
69624;BME280;56843;52.020;5.670;2023-05-14T00:13:31;101819.28;;;18.01;50.05
69624;BME280;56843;52.020;5.670;2023-05-14T00:15:02;101811.06;;;17.98;50.18
69624;BME280;56843;52.020;5.670;2023-05-14T00:16:32;101817.63;;;17.97;50.36
69624;BME280;56843;52.020;5.670;2023-05-14T00:18:02;101811.00;;;17.94;50.38
69624;BME280;56843;52.020;5.670;2023-05-14T00:19:33;101806.69;;;17.93;50.35
69624;BME280;56843;52.020;5.670;2023-05-14T00:21:03;101806.25;;;17.91;50.54
69624;BME280;56843;52.020;5.670;2023-05-14T00:22:34;101803.13;;;17.89;50.89
69624;BME280;56843;52.020;5.670;2023-05-14T00:24:06;101808.09;;;17.87;50.81
69624;BME280;56843;52.020;5.670;2023-05-14T00:25:37;101810.69;;;17.84;50.68
69624;BME280;56843;52.020;5.670;2023-05-14T00:27:07;101809.91;;;17.83;50.82
69624;BME280;56843;52.020;5.670;2023-05-14T00:28:39;101801.34;;;17.81;51.00
69624;BME280;56843;52.020;5.670;2023-05-14T00:30:09;101793.94;;;17.78;51.11
69624;BME280;56843;52.020;5.670;2023-05-14T00:31:40;101801.25;;;17.78;51.09
69624;BME280;56843;52.020;5.670;2023-05-14T00:33:10;101798.91;;;17.76;50.91
69624;BME280;56843;52.020;5.670;2023-05-14T00:34:41;101797.66;;;17.74;51.20
69624;BME280;56843;52.020;5.670;2023-05-14T00:36:11;101790.25;;;17.71;51.36
69624;BME280;56843;52.020;5.670;2023-05-14T00:37:42;101790.25;;;17.71;51.30
69624;BME280;56843;52.020;5.670;2023-05-14T00:39:13;101781.72;;;17.69;51.33
69624;BME280;56843;52.020;5.670;2023-05-14T00:40:44;101774.31;;;17.66;51.26
69624;BME280;56843;52.020;5.670;2023-05-14T00:42:20;101768.78;;;17.62;51.54
69624;BME280;56843;52.020;5.670;2023-05-14T00:43:50;101771.94;;;17.64;51.57
69624;BME280;56843;52.020;5.670;2023-05-14T00:45:21;101778.06;;;17.61;51.55
69624;BME280;56843;52.020;5.670;2023-05-14T00:46:52;101781.06;;;17.59;51.51
69624;BME280;56843;52.020;5.670;2023-05-14T00:48:23;101769.50;;;17.59;51.53
69624;BME280;56843;52.020;5.670;2023-05-14T00:49:54;101764.78;;;17.56;51.71
69624;BME280;56843;52.020;5.670;2023-05-14T00:51:24;101770.53;;;17.54;51.72
69624;BME280;56843;52.020;5.670;2023-05-14T00:52:55;101767.84;;;17.54;51.85
69624;BME280;56843;52.020;5.670;2023-05-14T00:54:26;101762.78;;;17.53;51.93
69624;BME280;56843;52.020;5.670;2023-05-14T00:55:57;101771.59;;;17.50;51.82
69624;BME280;56843;52.020;5.670;2023-05-14T00:57:28;101772.38;;;17.50;52.02
69624;BME280;56843;52.020;5.670;2023-05-14T00:58:58;101775.41;;;17.49;51.97
69624;BME280;56843;52.020;5.670;2023-05-14T01:02:23;101777.56;;;17.43;52.04
69624;BME280;56843;52.020;5.670;2023-05-14T01:03:54;101779.50;;;17.43;52.04
69624;BME280;56843;52.020;5.670;2023-05-14T01:09:12;101791.66;;;17.37;52.48
69624;BME280;56843;52.020;5.670;2023-05-14T01:10:51;101770.75;;;17.34;52.26
69624;BME280;56843;52.020;5.670;2023-05-14T01:15:36;101764.13;;;17.31;52.45
69624;BME280;56843;52.020;5.670;2023-05-14T01:17:10;101761.41;;;17.31;52.45
69624;BME280;56843;52.020;5.670;2023-05-14T01:18:42;101770.66;;;17.30;52.54
69624;BME280;56843;52.020;5.670;2023-05-14T01:20:15;101763.69;;;17.29;52.85
69624;BME280;56843;52.020;5.670;2023-05-14T01:21:46;101762.88;;;17.29;52.56
69624;BME280;56843;52.020;5.670;2023-05-14T01:23:16;101758.28;;;17.29;52.75
69624;BME280;56843;52.020;5.670;2023-05-14T01:24:47;101757.06;;;17.27;52.93
69624;BME280;56843;52.020;5.670;2023-05-14T01:26:18;101762.44;;;17.27;52.65
69624;BME280;56843;52.020;5.670;2023-05-14T01:29:37;101754.25;;;17.23;52.98
69624;BME280;56843;52.020;5.670;2023-05-14T01:31:16;101757.31;;;17.22;53.08
69624;BME280;56843;52.020;5.670;2023-05-14T01:32:50;101757.31;;;17.22;53.06
69624;BME280;56843;52.020;5.670;2023-05-14T01:34:23;101751.44;;;17.20;52.99
69624;BME280;56843;52.020;5.670;2023-05-14T01:35:55;101762.94;;;17.17;53.21
69624;BME280;56843;52.020;5.670;2023-05-14T01:37:28;101752.94;;;17.17;53.13
69624;BME280;56843;52.020;5.670;2023-05-14T01:39:00;101761.03;;;17.17;53.15
69624;BME280;56843;52.020;5.670;2023-05-14T01:40:33;101750.94;;;17.14;53.01
69624;BME280;56843;52.020;5.670;2023-05-14T01:42:06;101759.81;;;17.15;53.27
69624;BME280;56843;52.020;5.670;2023-05-14T01:43:37;101754.75;;;17.13;53.30
69624;BME280;56843;52.020;5.670;2023-05-14T01:45:08;101750.84;;;17.11;53.34
69624;BME280;56843;52.020;5.670;2023-05-14T01:46:39;101760.06;;;17.10;53.29
69624;BME280;56843;52.020;5.670;2023-05-14T01:48:10;101761.16;;;17.09;53.28
69624;BME280;56843;52.020;5.670;2023-05-14T01:49:40;101761.53;;;17.07;53.50
69624;BME280;56843;52.020;5.670;2023-05-14T01:51:10;101752.63;;;17.07;53.33
69624;BME280;56843;52.020;5.670;2023-05-14T01:52:43;101755.69;;;17.05;53.25
69624;BME280;56843;52.020;5.670;2023-05-14T01:54:14;101759.50;;;17.04;53.65
69624;BME280;56843;52.020;5.670;2023-05-14T01:55:45;101757.50;;;17.01;53.49
69624;BME280;56843;52.020;5.670;2023-05-14T01:57:15;101758.59;;;17.00;53.43
69624;BME280;56843;52.020;5.670;2023-05-14T01:58:46;101753.22;;;17.00;53.52
69624;BME280;56843;52.020;5.670;2023-05-14T02:00:17;101750.88;;;16.99;53.42
69624;BME280;56843;52.020;5.670;2023-05-14T02:01:47;101755.81;;;16.97;53.59
69624;BME280;56843;52.020;5.670;2023-05-14T02:03:18;101740.28;;;16.93;53.63
69624;BME280;56843;52.020;5.670;2023-05-14T02:04:49;101751.06;;;16.93;53.50
69624;BME280;56843;52.020;5.670;2023-05-14T02:06:19;101742.53;;;16.91;53.69
69624;BME280;56843;52.020;5.670;2023-05-14T02:07:50;101749.06;;;16.90;53.91
69624;BME280;56843;52.020;5.670;2023-05-14T02:09:20;101749.84;;;16.91;53.79
69624;BME280;56843;52.020;5.670;2023-05-14T02:10:51;101742.44;;;16.88;53.71
69624;BME280;56843;52.020;5.670;2023-05-14T02:12:21;101741.66;;;16.87;54.00
69624;BME280;56843;52.020;5.670;2023-05-14T02:13:52;101743.91;;;16.85;53.95
69624;BME280;56843;52.020;5.670;2023-05-14T02:15:23;101743.91;;;16.85;54.10
69624;BME280;56843;52.020;5.670;2023-05-14T02:16:53;101741.56;;;16.84;53.97
69624;BME280;56843;52.020;5.670;2023-05-14T02:18:24;101737.63;;;16.81;54.03
69624;BME280;56843;52.020;5.670;2023-05-14T02:19:55;101738.75;;;16.80;54.13
69624;BME280;56843;52.020;5.670;2023-05-14T02:21:25;101747.97;;;16.79;54.03
69624;BME280;56843;52.020;5.670;2023-05-14T02:22:56;101742.13;;;16.77;53.93
69624;BME280;56843;52.020;5.670;2023-05-14T02:24:26;101729.31;;;16.74;54.00
69624;BME280;56843;52.020;5.670;2023-05-14T02:25:57;101732.25;;;16.69;53.98
69624;BME280;56843;52.020;5.670;2023-05-14T02:27:27;101729.13;;;16.67;54.26
69624;BME280;56843;52.020;5.670;2023-05-14T02:28:58;101732.94;;;16.66;54.34
69624;BME280;56843;52.020;5.670;2023-05-14T02:30:28;101730.13;;;16.63;54.33
69624;BME280;56843;52.020;5.670;2023-05-14T02:32:00;101735.88;;;16.61;54.47
69624;BME280;56843;52.020;5.670;2023-05-14T02:33:31;101720.38;;;16.58;54.53
69624;BME280;56843;52.020;5.670;2023-05-14T02:35:02;101726.09;;;16.57;54.52
69624;BME280;56843;52.020;5.670;2023-05-14T02:36:32;101721.81;;;16.56;54.46
69624;BME280;56843;52.020;5.670;2023-05-14T02:38:03;101722.97;;;16.55;54.72
69624;BME280;56843;52.020;5.670;2023-05-14T02:39:34;101717.56;;;16.55;54.71
69624;BME280;56843;52.020;5.670;2023-05-14T02:41:04;101724.06;;;16.54;54.91
69624;BME280;56843;52.020;5.670;2023-05-14T02:42:35;101722.53;;;16.53;54.94
69624;BME280;56843;52.020;5.670;2023-05-14T02:44:06;101719.03;;;16.52;54.94
69624;BME280;56843;52.020;5.670;2023-05-14T02:45:36;101719.69;;;16.49;54.91
69624;BME280;56843;52.020;5.670;2023-05-14T02:47:07;101727.03;;;16.49;55.23
69624;BME280;56843;52.020;5.670;2023-05-14T02:48:37;101722.75;;;16.48;55.08
69624;BME280;56843;52.020;5.670;2023-05-14T02:50:08;101726.25;;;16.48;55.22
69624;BME280;56843;52.020;5.670;2023-05-14T02:51:38;101725.09;;;16.49;55.55
69624;BME280;56843;52.020;5.670;2023-05-14T02:53:09;101720.59;;;16.53;55.84
69624;BME280;56843;52.020;5.670;2023-05-14T02:54:39;101725.41;;;16.60;55.86
69624;BME280;56843;52.020;5.670;2023-05-14T02:56:10;101733.28;;;16.65;56.06
69624;BME280;56843;52.020;5.670;2023-05-14T02:57:40;101725.75;;;16.70;56.05
69624;BME280;56843;52.020;5.670;2023-05-14T02:59:11;101726.28;;;16.76;56.22
69624;BME280;56843;52.020;5.670;2023-05-14T03:00:41;101724.91;;;16.82;56.12
69624;BME280;56843;52.020;5.670;2023-05-14T03:02:12;101736.69;;;16.89;56.19
69624;BME280;56843;52.020;5.670;2023-05-14T03:03:43;101730.75;;;16.96;56.43
69624;BME280;56843;52.020;5.670;2023-05-14T03:05:13;101732.06;;;17.02;56.33
69624;BME280;56843;52.020;5.670;2023-05-14T03:06:44;101727.22;;;17.08;56.51
69624;BME280;56843;52.020;5.670;2023-05-14T03:08:14;101725.06;;;17.13;56.43
69624;BME280;56843;52.020;5.670;2023-05-14T03:09:45;101729.84;;;17.20;56.43
69624;BME280;56843;52.020;5.670;2023-05-14T03:11:16;101726.13;;;17.24;56.46
69624;BME280;56843;52.020;5.670;2023-05-14T03:12:46;101723.97;;;17.30;56.20
69624;BME280;56843;52.020;5.670;2023-05-14T03:14:17;101720.59;;;17.33;56.08
69624;BME280;56843;52.020;5.670;2023-05-14T03:15:47;101718.41;;;17.38;56.49
69624;BME280;56843;52.020;5.670;2023-05-14T03:17:18;101718.16;;;17.43;56.26
69624;BME280;56843;52.020;5.670;2023-05-14T03:18:48;101714.44;;;17.48;56.26
69624;BME280;56843;52.020;5.670;2023-05-14T03:20:19;101709.91;;;17.52;56.20
69624;BME280;56843;52.020;5.670;2023-05-14T03:21:49;101707.28;;;17.55;56.46
69624;BME280;56843;52.020;5.670;2023-05-14T03:23:20;101710.09;;;17.59;56.28
69624;BME280;56843;52.020;5.670;2023-05-14T03:24:51;101702.41;;;17.61;56.19
69624;BME280;56843;52.020;5.670;2023-05-14T03:26:21;101710.25;;;17.66;56.40
69624;BME280;56843;52.020;5.670;2023-05-14T03:27:52;101711.13;;;17.70;56.43
69624;BME280;56843;52.020;5.670;2023-05-14T03:29:22;101703.47;;;17.72;56.14
69624;BME280;56843;52.020;5.670;2023-05-14T03:30:53;101707.03;;;17.76;56.08
69624;BME280;56843;52.020;5.670;2023-05-14T03:32:23;101702.06;;;17.78;56.29
69624;BME280;56843;52.020;5.670;2023-05-14T03:33:54;101702.13;;;17.82;56.19
69624;BME280;56843;52.020;5.670;2023-05-14T03:35:25;101706.06;;;17.84;56.39
69624;BME280;56843;52.020;5.670;2023-05-14T03:36:56;101701.91;;;17.87;56.45
69624;BME280;56843;52.020;5.670;2023-05-14T03:38:26;101703.13;;;17.89;56.43
69624;BME280;56843;52.020;5.670;2023-05-14T03:39:57;101698.94;;;17.92;56.06
69624;BME280;56843;52.020;5.670;2023-05-14T03:41:27;101705.59;;;17.94;56.21
69624;BME280;56843;52.020;5.670;2023-05-14T03:42:58;101704.44;;;17.95;56.15
69624;BME280;56843;52.020;5.670;2023-05-14T03:44:28;101702.59;;;17.99;56.17
69624;BME280;56843;52.020;5.670;2023-05-14T03:45:59;101706.88;;;18.00;56.11
69624;BME280;56843;52.020;5.670;2023-05-14T03:47:29;101706.50;;;18.02;55.96
69624;BME280;56843;52.020;5.670;2023-05-14T03:49:00;101701.09;;;18.02;56.34
69624;BME280;56843;52.020;5.670;2023-05-14T03:50:31;101700.41;;;18.05;56.02
69624;BME280;56843;52.020;5.670;2023-05-14T03:52:02;101709.75;;;18.07;56.10
69624;BME280;56843;52.020;5.670;2023-05-14T03:53:32;101709.75;;;18.07;56.17
69624;BME280;56843;52.020;5.670;2023-05-14T03:55:03;101700.91;;;18.10;56.12
69624;BME280;56843;52.020;5.670;2023-05-14T03:56:34;101700.91;;;18.10;56.25
69624;BME280;56843;52.020;5.670;2023-05-14T03:58:04;101699.09;;;18.14;56.27
69624;BME280;56843;52.020;5.670;2023-05-14T03:59:40;101695.63;;;18.14;56.05
69624;BME280;56843;52.020;5.670;2023-05-14T04:01:10;101689.50;;;18.17;56.20
69624;BME280;56843;52.020;5.670;2023-05-14T04:02:41;101694.56;;;18.18;56.30
69624;BME280;56843;52.020;5.670;2023-05-14T04:04:12;101695.00;;;18.20;56.20
69624;BME280;56843;52.020;5.670;2023-05-14T04:05:42;101693.84;;;18.21;56.26
69624;BME280;56843;52.020;5.670;2023-05-14T04:07:13;101690.00;;;18.22;56.27
69624;BME280;56843;52.020;5.670;2023-05-14T04:08:43;101691.22;;;18.25;56.16
69624;BME280;56843;52.020;5.670;2023-05-14T04:10:14;101691.22;;;18.25;56.30
69624;BME280;56843;52.020;5.670;2023-05-14T04:11:45;101696.28;;;18.26;55.95
69624;BME280;56843;52.020;5.670;2023-05-14T04:13:16;101694.78;;;18.29;56.14
69624;BME280;56843;52.020;5.670;2023-05-14T04:14:47;101695.59;;;18.29;56.10
69624;BME280;56843;52.020;5.670;2023-05-14T04:16:18;101697.94;;;18.31;56.21
69624;BME280;56843;52.020;5.670;2023-05-14T04:17:48;101698.72;;;18.31;55.95
69624;BME280;56843;52.020;5.670;2023-05-14T04:19:19;101695.66;;;18.33;56.30
69624;BME280;56843;52.020;5.670;2023-05-14T04:20:49;101692.94;;;18.33;56.06
69624;BME280;56843;52.020;5.670;2023-05-14T04:22:19;101698.78;;;18.35;56.35
69624;BME280;56843;52.020;5.670;2023-05-14T04:23:50;101693.03;;;18.37;56.26
69624;BME280;56843;52.020;5.670;2023-05-14T04:25:21;101703.84;;;18.37;56.21
69624;BME280;56843;52.020;5.670;2023-05-14T04:26:51;101704.28;;;18.39;56.38
69624;BME280;56843;52.020;5.670;2023-05-14T04:28:22;101700.44;;;18.40;56.12
69624;BME280;56843;52.020;5.670;2023-05-14T04:29:52;101708.22;;;18.41;56.20
69624;BME280;56843;52.020;5.670;2023-05-14T04:31:23;101703.22;;;18.43;56.18
69624;BME280;56843;52.020;5.670;2023-05-14T04:32:53;101695.88;;;18.44;56.16
69624;BME280;56843;52.020;5.670;2023-05-14T04:34:24;101691.19;;;18.41;56.19
69624;BME280;56843;52.020;5.670;2023-05-14T04:35:55;101698.25;;;18.45;56.09
69624;BME280;56843;52.020;5.670;2023-05-14T04:37:26;101693.63;;;18.46;56.32
69624;BME280;56843;52.020;5.670;2023-05-14T04:38:56;101691.34;;;18.48;56.20
69624;BME280;56843;52.020;5.670;2023-05-14T04:40:26;101698.31;;;18.49;56.24
69624;BME280;56843;52.020;5.670;2023-05-14T04:41:57;101684.34;;;18.47;56.21
69624;BME280;56843;52.020;5.670;2023-05-14T04:43:27;101688.28;;;18.49;56.19
69624;BME280;56843;52.020;5.670;2023-05-14T04:44:58;101696.03;;;18.51;56.17
69624;BME280;56843;52.020;5.670;2023-05-14T04:46:29;101686.78;;;18.52;56.46
69624;BME280;56843;52.020;5.670;2023-05-14T04:47:59;101687.59;;;18.52;56.26
69624;BME280;56843;52.020;5.670;2023-05-14T04:49:30;101689.13;;;18.53;56.35
69624;BME280;56843;52.020;5.670;2023-05-14T04:51:01;101684.50;;;18.54;56.17
69624;BME280;56843;52.020;5.670;2023-05-14T04:52:31;101693.06;;;18.56;56.15
69624;BME280;56843;52.020;5.670;2023-05-14T04:54:02;101683.81;;;18.57;56.39
69624;BME280;56843;52.020;5.670;2023-05-14T04:55:32;101686.53;;;18.57;56.09
69624;BME280;56843;52.020;5.670;2023-05-14T04:57:03;101683.81;;;18.57;56.38
69624;BME280;56843;52.020;5.670;2023-05-14T04:58:34;101690.41;;;18.59;55.98
69624;BME280;56843;52.020;5.670;2023-05-14T05:00:05;101685.00;;;18.59;56.14
69624;BME280;56843;52.020;5.670;2023-05-14T05:01:37;101683.09;;;18.60;56.28
69624;BME280;56843;52.020;5.670;2023-05-14T05:03:07;101684.66;;;18.61;56.21
69624;BME280;56843;52.020;5.670;2023-05-14T05:04:38;101674.19;;;18.59;55.99
69624;BME280;56843;52.020;5.670;2023-05-14T05:06:08;101681.97;;;18.61;55.97
69624;BME280;56843;52.020;5.670;2023-05-14T05:07:39;101692.41;;;18.62;55.63
69624;BME280;56843;52.020;5.670;2023-05-14T05:09:10;101691.28;;;18.63;55.81
69624;BME280;56843;52.020;5.670;2023-05-14T05:10:40;101685.09;;;18.63;55.62
69624;BME280;56843;52.020;5.670;2023-05-14T05:12:10;101690.13;;;18.64;55.86
69624;BME280;56843;52.020;5.670;2023-05-14T05:13:41;101687.44;;;18.64;55.84
69624;BME280;56843;52.020;5.670;2023-05-14T05:15:12;101691.72;;;18.65;55.90
69624;BME280;56843;52.020;5.670;2023-05-14T05:16:42;101701.38;;;18.66;55.83
69624;BME280;56843;52.020;5.670;2023-05-14T05:18:13;101701.06;;;18.68;55.69
69624;BME280;56843;52.020;5.670;2023-05-14T05:19:44;101700.25;;;18.67;55.68
69624;BME280;56843;52.020;5.670;2023-05-14T05:21:15;101695.66;;;18.68;55.44
69624;BME280;56843;52.020;5.670;2023-05-14T05:22:45;101706.09;;;18.69;55.55
69624;BME280;56843;52.020;5.670;2023-05-14T05:24:16;101705.78;;;18.71;55.47
69624;BME280;56843;52.020;5.670;2023-05-14T05:25:46;101705.41;;;18.72;55.44
69624;BME280;56843;52.020;5.670;2023-05-14T05:27:17;101704.28;;;18.73;55.68
69624;BME280;56843;52.020;5.670;2023-05-14T05:28:47;101711.28;;;18.74;55.49
69624;BME280;56843;52.020;5.670;2023-05-14T05:30:18;101700.09;;;18.76;55.45
69624;BME280;56843;52.020;5.670;2023-05-14T05:31:48;101712.53;;;18.80;55.46
69624;BME280;56843;52.020;5.670;2023-05-14T05:33:19;101712.19;;;18.82;55.32
69624;BME280;56843;52.020;5.670;2023-05-14T05:34:50;101716.09;;;18.84;55.23
69624;BME280;56843;52.020;5.670;2023-05-14T05:36:21;101721.56;;;18.88;55.03
69624;BME280;56843;52.020;5.670;2023-05-14T05:37:51;101716.63;;;18.90;55.28
69624;BME280;56843;52.020;5.670;2023-05-14T05:39:22;101717.03;;;18.92;55.06
69624;BME280;56843;52.020;5.670;2023-05-14T05:40:52;101715.53;;;18.94;55.08
69624;BME280;56843;52.020;5.670;2023-05-14T05:42:23;101721.03;;;18.98;54.66
69624;BME280;56843;52.020;5.670;2023-05-14T05:43:53;101709.41;;;18.97;55.02
69624;BME280;56843;52.020;5.670;2023-05-14T05:45:24;101720.38;;;19.04;54.75
69624;BME280;56843;52.020;5.670;2023-05-14T05:46:54;101715.38;;;19.06;54.72
69624;BME280;56843;52.020;5.670;2023-05-14T05:48:26;101706.56;;;19.10;54.15
69624;BME280;56843;52.020;5.670;2023-05-14T05:49:56;101708.19;;;19.14;54.79
69624;BME280;56843;52.020;5.670;2023-05-14T05:51:27;101711.31;;;19.16;54.37
69624;BME280;56843;52.020;5.670;2023-05-14T05:52:57;101714.44;;;19.18;54.73
69624;BME280;56843;52.020;5.670;2023-05-14T05:54:30;101715.66;;;19.21;54.52
69624;BME280;56843;52.020;5.670;2023-05-14T05:56:01;101712.59;;;19.22;54.42
69624;BME280;56843;52.020;5.670;2023-05-14T05:57:32;101712.22;;;19.24;54.20
69624;BME280;56843;52.020;5.670;2023-05-14T05:59:02;101709.94;;;19.26;54.34
69624;BME280;56843;52.020;5.670;2023-05-14T06:00:33;101719.28;;;19.28;54.20
69624;BME280;56843;52.020;5.670;2023-05-14T06:02:03;101718.94;;;19.30;54.29
69624;BME280;56843;52.020;5.670;2023-05-14T06:03:34;101724.34;;;19.30;54.43
69624;BME280;56843;52.020;5.670;2023-05-14T06:05:05;101729.03;;;19.33;54.30
69624;BME280;56843;52.020;5.670;2023-05-14T06:06:36;101724.41;;;19.33;54.42
69624;BME280;56843;52.020;5.670;2023-05-14T06:08:06;101728.66;;;19.34;53.79
69624;BME280;56843;52.020;5.670;2023-05-14T06:09:37;101722.13;;;19.35;53.85
69624;BME280;56843;52.020;5.670;2023-05-14T06:11:07;101719.84;;;19.37;54.30
69624;BME280;56843;52.020;5.670;2023-05-14T06:12:38;101719.47;;;19.39;54.11
69624;BME280;56843;52.020;5.670;2023-05-14T06:14:09;101722.63;;;19.41;54.21
69624;BME280;56843;52.020;5.670;2023-05-14T06:15:40;101720.69;;;19.41;53.73
69624;BME280;56843;52.020;5.670;2023-05-14T06:17:10;101724.59;;;19.44;53.84
69624;BME280;56843;52.020;5.670;2023-05-14T06:18:41;101718.81;;;19.45;53.65
69624;BME280;56843;52.020;5.670;2023-05-14T06:20:11;101720.38;;;19.46;54.05
69624;BME280;56843;52.020;5.670;2023-05-14T06:21:42;101725.09;;;19.49;53.73
69624;BME280;56843;52.020;5.670;2023-05-14T06:23:12;101729.00;;;19.52;53.94
69624;BME280;56843;52.020;5.670;2023-05-14T06:24:43;101726.75;;;19.54;53.90
69624;BME280;56843;52.020;5.670;2023-05-14T06:26:13;101725.59;;;19.55;53.67
69624;BME280;56843;52.020;5.670;2023-05-14T06:27:44;101737.28;;;19.59;53.60
69624;BME280;56843;52.020;5.670;2023-05-14T06:29:14;101734.28;;;19.64;53.62
69624;BME280;56843;52.020;5.670;2023-05-14T06:30:45;101733.56;;;19.67;53.64
69624;BME280;56843;52.020;5.670;2023-05-14T06:32:15;101732.81;;;19.70;53.59
69624;BME280;56843;52.020;5.670;2023-05-14T06:33:46;101739.16;;;19.77;53.26
69624;BME280;56843;52.020;5.670;2023-05-14T06:35:17;101738.06;;;19.82;52.90
69624;BME280;56843;52.020;5.670;2023-05-14T06:36:48;101740.81;;;19.86;53.23
69624;BME280;56843;52.020;5.670;2023-05-14T06:38:18;101738.66;;;19.95;52.91
69624;BME280;56843;52.020;5.670;2023-05-14T06:39:49;101741.44;;;19.98;52.63
69624;BME280;56843;52.020;5.670;2023-05-14T06:41:20;101726.00;;;20.02;52.78
69624;BME280;56843;52.020;5.670;2023-05-14T06:42:50;101731.88;;;20.08;52.39
69624;BME280;56843;52.020;5.670;2023-05-14T06:44:20;101739.31;;;20.11;52.66
69624;BME280;56843;52.020;5.670;2023-05-14T06:45:51;101731.59;;;20.13;52.45
69624;BME280;56843;52.020;5.670;2023-05-14T06:47:22;101726.59;;;20.15;52.69
69624;BME280;56843;52.020;5.670;2023-05-14T06:48:52;101722.41;;;20.21;52.32
69624;BME280;56843;52.020;5.670;2023-05-14T06:50:23;101722.09;;;20.26;52.60
69624;BME280;56843;52.020;5.670;2023-05-14T06:51:54;101729.56;;;20.32;52.27
69624;BME280;56843;52.020;5.670;2023-05-14T06:53:24;101719.63;;;20.40;52.12
69624;BME280;56843;52.020;5.670;2023-05-14T06:54:54;101729.00;;;20.46;51.84
69624;BME280;56843;52.020;5.670;2023-05-14T06:56:25;101721.75;;;20.54;51.69
69624;BME280;56843;52.020;5.670;2023-05-14T06:57:55;101728.03;;;20.61;51.64
69624;BME280;56843;52.020;5.670;2023-05-14T06:59:26;101725.84;;;20.70;51.76
69624;BME280;56843;52.020;5.670;2023-05-14T07:00:57;101724.03;;;20.81;51.57
69624;BME280;56843;52.020;5.670;2023-05-14T07:02:27;101721.81;;;20.90;51.45
69624;BME280;56843;52.020;5.670;2023-05-14T07:03:58;101730.06;;;20.97;51.28
69624;BME280;56843;52.020;5.670;2023-05-14T07:05:29;101716.56;;;21.04;51.04
69624;BME280;56843;52.020;5.670;2023-05-14T07:06:59;101724.78;;;21.11;51.17
69624;BME280;56843;52.020;5.670;2023-05-14T07:08:30;101712.47;;;21.17;51.00
69624;BME280;56843;52.020;5.670;2023-05-14T07:10:00;101721.06;;;21.23;51.22
69624;BME280;56843;52.020;5.670;2023-05-14T07:11:31;101723.44;;;21.28;50.72
69624;BME280;56843;52.020;5.670;2023-05-14T07:13:02;101721.19;;;21.37;50.76
69624;BME280;56843;52.020;5.670;2023-05-14T07:14:32;101711.63;;;21.50;50.81
69624;BME280;56843;52.020;5.670;2023-05-14T07:16:04;101709.38;;;21.59;50.46
69624;BME280;56843;52.020;5.670;2023-05-14T07:17:34;101705.16;;;21.65;50.08
69624;BME280;56843;52.020;5.670;2023-05-14T07:19:05;101717.63;;;21.70;50.14
69624;BME280;56843;52.020;5.670;2023-05-14T07:20:35;101716.47;;;21.71;50.00
69624;BME280;56843;52.020;5.670;2023-05-14T07:22:06;101717.22;;;21.71;49.68
69624;BME280;56843;52.020;5.670;2023-05-14T07:23:36;101719.19;;;21.71;49.89
69624;BME280;56843;52.020;5.670;2023-05-14T07:25:07;101718.00;;;21.68;49.78
69624;BME280;56843;52.020;5.670;2023-05-14T07:26:38;101716.03;;;21.69;49.75
69624;BME280;56843;52.020;5.670;2023-05-14T07:28:08;101715.63;;;21.67;50.02
69624;BME280;56843;52.020;5.670;2023-05-14T07:29:39;101713.72;;;21.67;49.40
69624;BME280;56843;52.020;5.670;2023-05-14T07:31:09;101714.09;;;21.66;49.67
69624;BME280;56843;52.020;5.670;2023-05-14T07:32:40;101711.78;;;21.71;49.84
69624;BME280;56843;52.020;5.670;2023-05-14T07:34:10;101707.94;;;21.76;49.55
69624;BME280;56843;52.020;5.670;2023-05-14T07:35:42;101708.41;;;21.81;49.52
69624;BME280;56843;52.020;5.670;2023-05-14T07:37:12;101712.34;;;21.87;49.63
69624;BME280;56843;52.020;5.670;2023-05-14T07:38:43;101721.38;;;21.99;49.43
69624;BME280;56843;52.020;5.670;2023-05-14T07:40:13;101708.63;;;22.13;49.19
69624;BME280;56843;52.020;5.670;2023-05-14T07:41:44;101700.97;;;22.29;49.00
69624;BME280;56843;52.020;5.670;2023-05-14T07:43:15;101700.28;;;22.43;48.36
69624;BME280;56843;52.020;5.670;2023-05-14T07:44:45;101702.72;;;22.55;48.24
69624;BME280;56843;52.020;5.670;2023-05-14T07:46:15;101696.53;;;22.65;48.21
69624;BME280;56843;52.020;5.670;2023-05-14T07:47:46;101701.59;;;22.74;48.32
69624;BME280;56843;52.020;5.670;2023-05-14T07:49:20;101696.56;;;22.76;48.19
69624;BME280;56843;52.020;5.670;2023-05-14T07:50:51;101702.00;;;22.76;48.13
69624;BME280;56843;52.020;5.670;2023-05-14T07:52:22;101695.00;;;22.75;48.22
69624;BME280;56843;52.020;5.670;2023-05-14T07:53:53;101700.88;;;22.84;47.85
69624;BME280;56843;52.020;5.670;2023-05-14T07:55:24;101697.78;;;22.92;47.94
69624;BME280;56843;52.020;5.670;2023-05-14T07:56:55;101698.56;;;22.96;47.84
69624;BME280;56843;52.020;5.670;2023-05-14T07:58:26;101691.19;;;23.00;47.97
69624;BME280;56843;52.020;5.670;2023-05-14T07:59:58;101694.72;;;23.08;47.55
69624;BME280;56843;52.020;5.670;2023-05-14T08:01:28;101691.59;;;23.13;47.37
69624;BME280;56843;52.020;5.670;2023-05-14T08:02:59;101706.09;;;23.27;47.00
69624;BME280;56843;52.020;5.670;2023-05-14T08:04:30;101698.31;;;23.36;46.90
69624;BME280;56843;52.020;5.670;2023-05-14T08:06:00;101700.25;;;23.43;47.14